Time;durP1;ratioP1;P1;durP2;ratioP2;P2;SDS_P1;SDS_P2;PMS_P1;PMS_P2;Temp;Humidity;BMP_temperature;BMP_pressure;BME280_temperature;BME280_humidity;BME280_pressure;Samples;Min_cycle;Max_cycle;Signal;HPM_P1;HPM_P2
2022/01/18 00:01:18;;;;;;;;;;;10.60;55.50;;;;;;5081942;28;19919;-70
2022/01/18 00:03:44;;;;;;;;;;;10.50;55.40;;;;;;5081627;28;19904;-70
2022/01/18 00:06:10;;;;;;;;;;;10.50;55.40;;;;;;5081851;28;20119;-70
2022/01/18 00:08:35;;;;;;;;;;;10.50;55.50;;;;;;5081389;28;19931;-70
2022/01/18 00:11:01;;;;;;;;;;;10.50;55.50;;;;;;5081507;28;19911;-70
2022/01/18 00:18:21;;;;;;;;;;;10.50;55.50;;;;;;5081417;28;19946;-70
2022/01/18 00:23:14;;;;;;;;;;;10.60;55.40;;;;;;5081527;28;19947;-70
2022/01/18 00:25:43;;;;;;;;;;;10.60;55.30;;;;;;5081152;28;19916;-70
2022/01/18 00:28:09;;;;;;;;;;;10.60;55.30;;;;;;5081167;28;19908;-69
2022/01/18 00:34:00;;;;;;;;;;;10.50;55.40;;;;;;5081380;28;19980;-69
2022/01/18 00:36:02;;;;;;;;;;;10.50;55.50;;;;;;5077838;28;20184;-71
2022/01/18 00:38:44;;;;;;;;;;;10.50;55.60;;;;;;5080991;28;19912;-69
2022/01/18 00:41:10;;;;;;;;;;;10.50;55.60;;;;;;5080998;28;19976;-70
2022/01/18 00:43:36;;;;;;;;;;;10.50;55.60;;;;;;5080901;28;19950;-70
2022/01/18 00:46:01;;;;;;;;;;;10.50;55.50;;;;;;5080781;28;19936;-70
2022/01/18 00:48:32;;;;;;;;;;;10.50;55.50;;;;;;5080769;28;20242;-70
2022/01/18 00:50:57;;;;;;;;;;;10.60;55.40;;;;;;5080834;28;19912;-71
2022/01/18 00:53:25;;;;;;;;;;;10.50;55.30;;;;;;5080770;28;20140;-70
2022/01/18 00:56:05;;;;;;;;;;;10.60;55.30;;;;;;5080703;28;19943;-70
2022/01/18 00:58:30;;;;;;;;;;;10.50;55.30;;;;;;5080934;28;19904;-69
2022/01/18 01:00:56;;;;;;;;;;;10.50;55.30;;;;;;5080552;28;19904;-70
2022/01/18 01:03:22;;;;;;;;;;;10.50;55.50;;;;;;5080638;28;20209;-69
2022/01/18 01:05:48;;;;;;;;;;;10.50;55.60;;;;;;5079191;28;20014;-69
2022/01/18 01:08:13;;;;;;;;;;;10.50;55.60;;;;;;5080332;28;20037;-70
2022/01/18 01:10:39;;;;;;;;;;;10.50;55.60;;;;;;5079913;28;19915;-69
2022/01/18 01:13:05;;;;;;;;;;;10.50;55.60;;;;;;5080437;28;20201;-69
2022/01/18 01:15:35;;;;;;;;;;;10.40;55.60;;;;;;5080402;28;19904;-69
2022/01/18 01:18:20;;;;;;;;;;;10.40;55.50;;;;;;5080386;28;19976;-70
2022/01/18 01:34:39;;;;;;;;;;;10.50;55.40;;;;;;5080103;28;20219;-69
2022/01/18 01:45:05;;;;;;;;;;;10.40;55.70;;;;;;5080036;28;19911;-71
2022/01/18 01:47:35;;;;;;;;;;;10.40;55.70;;;;;;5079895;28;19908;-71
2022/01/18 01:50:03;;;;;;;;;;;10.40;55.80;;;;;;5079929;28;19909;-70
2022/01/18 01:52:29;;;;;;;;;;;10.40;55.70;;;;;;5079906;28;19905;-71
2022/01/18 01:54:55;;;;;;;;;;;10.40;55.70;;;;;;5079883;28;19950;-69
2022/01/18 01:57:21;;;;;;;;;;;10.40;55.80;;;;;;5079909;28;19943;-70
2022/01/18 01:59:46;;;;;;;;;;;10.40;55.80;;;;;;5079885;28;19943;-70
2022/01/18 02:02:12;;;;;;;;;;;10.40;55.80;;;;;;5079884;28;19912;-71
2022/01/18 02:04:38;;;;;;;;;;;10.40;55.70;;;;;;5079755;28;19919;-70
2022/01/18 02:07:04;;;;;;;;;;;10.40;55.70;;;;;;5079618;28;19975;-70
2022/01/18 02:09:30;;;;;;;;;;;10.40;55.60;;;;;;5079754;28;20191;-70
2022/01/18 02:11:57;;;;;;;;;;;10.40;55.70;;;;;;5079799;28;19913;-70
2022/01/18 02:14:23;;;;;;;;;;;10.40;55.70;;;;;;5079854;28;20471;-70
2022/01/18 02:22:18;;;;;;;;;;;10.40;55.80;;;;;;5080503;28;19919;-71
2022/01/18 02:24:43;;;;;;;;;;;10.40;55.80;;;;;;5083739;28;20112;-70
2022/01/18 02:27:09;;;;;;;;;;;10.40;55.90;;;;;;5083546;28;20395;-70
2022/01/18 02:29:35;;;;;;;;;;;10.40;55.80;;;;;;5083556;28;19912;-70
2022/01/18 02:32:02;;;;;;;;;;;10.30;55.80;;;;;;5083541;28;19964;-68
2022/01/18 02:34:27;;;;;;;;;;;10.40;55.80;;;;;;5083504;28;19912;-71
2022/01/18 02:36:54;;;;;;;;;;;10.30;55.80;;;;;;5083475;28;19958;-69
2022/01/18 02:39:21;;;;;;;;;;;10.40;55.90;;;;;;5083433;28;19972;-69
2022/01/18 02:41:57;;;;;;;;;;;10.40;55.80;;;;;;5083298;28;19911;-69
2022/01/18 02:44:23;;;;;;;;;;;10.40;55.80;;;;;;5083893;28;19928;-69
2022/01/18 02:46:49;;;;;;;;;;;10.40;55.80;;;;;;5083169;28;19908;-69
2022/01/18 02:49:15;;;;;;;;;;;10.30;55.70;;;;;;5083149;28;19962;-69
2022/01/18 02:51:41;;;;;;;;;;;10.40;55.80;;;;;;5083186;28;20097;-70
2022/01/18 02:54:17;;;;;;;;;;;10.40;55.70;;;;;;5083019;28;19905;-69
2022/01/18 02:56:48;;;;;;;;;;;10.40;55.80;;;;;;5083157;28;19916;-70
2022/01/18 03:04:24;;;;;;;;;;;10.30;55.70;;;;;;5082888;28;19915;-69
2022/01/18 03:06:49;;;;;;;;;;;10.30;55.80;;;;;;5082719;28;19955;-70
2022/01/18 03:09:15;;;;;;;;;;;10.30;55.90;;;;;;5082621;28;19928;-70
2022/01/18 03:11:41;;;;;;;;;;;10.30;55.90;;;;;;5082772;28;19904;-69
2022/01/18 03:14:06;;;;;;;;;;;10.30;55.80;;;;;;5081455;28;19919;-69
2022/01/18 03:16:32;;;;;;;;;;;10.30;55.80;;;;;;5082730;28;19912;-70
2022/01/18 03:18:57;;;;;;;;;;;10.30;55.80;;;;;;5082501;28;19947;-70
2022/01/18 03:21:23;;;;;;;;;;;10.30;55.80;;;;;;5082652;28;19924;-69
2022/01/18 03:23:54;;;;;;;;;;;10.30;55.80;;;;;;5082421;28;19931;-70
2022/01/18 03:26:19;;;;;;;;;;;10.30;55.80;;;;;;5082415;28;19908;-70
2022/01/18 03:28:45;;;;;;;;;;;10.30;55.90;;;;;;5082439;28;20104;-70
2022/01/18 03:31:11;;;;;;;;;;;10.30;55.90;;;;;;5082439;28;19971;-70
2022/01/18 03:33:36;;;;;;;;;;;10.30;55.80;;;;;;5081797;28;20022;-70
2022/01/18 03:36:02;;;;;;;;;;;10.30;55.80;;;;;;5082291;28;19912;-70
2022/01/18 03:38:31;;;;;;;;;;;10.30;55.90;;;;;;5082275;28;19913;-70
2022/01/18 03:40:58;;;;;;;;;;;10.30;55.90;;;;;;5082130;28;20124;-69
2022/01/18 03:43:23;;;;;;;;;;;10.30;55.80;;;;;;5082157;28;19975;-70
2022/01/18 03:45:51;;;;;;;;;;;10.30;55.90;;;;;;5082084;28;20255;-70
2022/01/18 03:48:27;;;;;;;;;;;10.30;55.90;;;;;;5080688;28;19905;-71
2022/01/18 03:50:53;;;;;;;;;;;10.30;55.90;;;;;;5082021;28;19912;-70
2022/01/18 03:53:20;;;;;;;;;;;10.30;56.00;;;;;;5081992;28;19957;-69
2022/01/18 03:55:46;;;;;;;;;;;10.30;55.90;;;;;;5081910;28;20479;-69
2022/01/18 03:58:12;;;;;;;;;;;10.30;55.80;;;;;;5082120;28;19909;-70
2022/01/18 04:00:37;;;;;;;;;;;10.30;55.90;;;;;;5081900;28;19924;-69
2022/01/18 04:03:03;;;;;;;;;;;10.30;55.90;;;;;;5081778;28;19912;-70
2022/01/18 04:05:28;;;;;;;;;;;10.30;55.90;;;;;;5080700;28;20000;-70
2022/01/18 04:07:54;;;;;;;;;;;10.20;55.90;;;;;;5080242;28;19924;-70
2022/01/18 04:10:20;;;;;;;;;;;10.30;56.00;;;;;;5081688;28;20127;-70
2022/01/18 04:12:46;;;;;;;;;;;10.30;56.00;;;;;;5081443;28;19905;-70
2022/01/18 04:15:13;;;;;;;;;;;10.20;55.90;;;;;;5081524;28;19948;-71
2022/01/18 04:28:31;;;;;;;;;;;10.20;56.00;;;;;;5081216;28;20226;-70
2022/01/18 04:30:56;;;;;;;;;;;10.20;55.90;;;;;;5081207;28;19905;-70
2022/01/18 04:33:22;;;;;;;;;;;10.20;55.90;;;;;;5081108;28;19919;-70
2022/01/18 04:35:48;;;;;;;;;;;10.20;55.90;;;;;;5079752;28;19913;-71
2022/01/18 04:38:13;;;;;;;;;;;10.20;55.80;;;;;;5080937;28;19913;-70
2022/01/18 04:40:42;;;;;;;;;;;10.30;55.80;;;;;;5081000;28;19908;-70
2022/01/18 04:48:28;;;;;;;;;;;10.20;56.00;;;;;;5080875;28;19919;-70
2022/01/18 04:50:54;;;;;;;;;;;10.20;55.90;;;;;;5080715;28;19919;-69
2022/01/18 04:53:20;;;;;;;;;;;10.20;55.90;;;;;;5080714;28;19953;-69
2022/01/18 04:55:52;;;;;;;;;;;10.20;56.00;;;;;;5080634;28;19908;-71
2022/01/18 04:58:18;;;;;;;;;;;10.20;56.10;;;;;;5080640;28;19958;-70
2022/01/18 05:00:44;;;;;;;;;;;10.20;56.10;;;;;;5080613;28;19909;-69
2022/01/18 05:03:09;;;;;;;;;;;10.20;56.10;;;;;;5080527;28;19913;-69
2022/01/18 05:05:37;;;;;;;;;;;10.20;56.00;;;;;;5080456;28;19913;-69
2022/01/18 05:08:05;;;;;;;;;;;10.20;56.00;;;;;;5080256;28;20241;-70
2022/01/18 05:10:31;;;;;;;;;;;10.20;55.90;;;;;;5080340;28;19971;-69
2022/01/18 05:12:58;;;;;;;;;;;10.20;55.90;;;;;;5080340;28;20078;-69
2022/01/18 05:23:21;;;;;;;;;;;10.20;55.90;;;;;;5080504;28;19912;-69
2022/01/18 05:25:47;;;;;;;;;;;10.20;56.10;;;;;;5080134;28;19916;-70
2022/01/18 05:28:13;;;;;;;;;;;10.10;56.60;;;;;;5080168;28;19919;-71
2022/01/18 05:30:39;;;;;;;;;;;10.20;56.00;;;;;;5080089;28;19904;-70
2022/01/18 05:33:06;;;;;;;;;;;10.20;56.10;;;;;;5080026;28;19912;-70
2022/01/18 05:35:32;;;;;;;;;;;10.20;56.10;;;;;;5080616;28;19913;-70
2022/01/18 05:37:58;;;;;;;;;;;10.10;56.00;;;;;;5080022;28;19951;-69
2022/01/18 05:40:23;;;;;;;;;;;10.20;56.10;;;;;;5079886;28;19913;-70
2022/01/18 05:42:49;;;;;;;;;;;10.20;56.00;;;;;;5079967;28;20232;-69
2022/01/18 05:45:15;;;;;;;;;;;10.20;56.00;;;;;;5079868;28;19916;-68
2022/01/18 05:47:41;;;;;;;;;;;10.10;55.90;;;;;;5079893;28;19912;-69
2022/01/18 05:50:08;;;;;;;;;;;10.10;55.90;;;;;;5079817;28;19951;-70
2022/01/18 05:52:33;;;;;;;;;;;10.20;56.10;;;;;;5079887;28;19920;-70
2022/01/18 05:54:59;;;;;;;;;;;10.10;56.10;;;;;;5079852;28;19940;-70
2022/01/18 05:57:25;;;;;;;;;;;10.10;56.10;;;;;;5079968;28;20269;-69
2022/01/18 05:59:52;;;;;;;;;;;10.20;56.10;;;;;;5079768;28;19912;-70
2022/01/18 06:02:37;;;;;;;;;;;10.10;56.10;;;;;;5079732;28;19920;-70
2022/01/18 06:07:47;;;;;;;;;;;10.10;56.10;;;;;;5079497;28;20027;-70
2022/01/18 06:10:13;;;;;;;;;;;10.10;56.10;;;;;;5078515;28;20136;-71
2022/01/18 06:12:39;;;;;;;;;;;10.10;56.20;;;;;;5079670;28;19917;-69
2022/01/18 06:15:05;;;;;;;;;;;10.10;56.20;;;;;;5079848;28;19919;-70
2022/01/18 06:17:31;;;;;;;;;;;10.10;56.20;;;;;;5079634;28;20124;-69
2022/01/18 06:19:57;;;;;;;;;;;10.10;56.10;;;;;;5079558;28;20244;-70
2022/01/18 06:22:22;;;;;;;;;;;10.10;56.00;;;;;;5078243;28;19919;-70
2022/01/18 06:24:48;;;;;;;;;;;10.10;56.00;;;;;;5079507;28;19921;-70
2022/01/18 06:27:13;;;;;;;;;;;10.10;56.00;;;;;;5079420;28;19915;-69
2022/01/18 06:29:39;;;;;;;;;;;10.10;56.00;;;;;;5079500;28;19911;-70
2022/01/18 06:32:05;;;;;;;;;;;10.10;56.00;;;;;;5079648;28;20363;-70
2022/01/18 06:34:31;;;;;;;;;;;10.10;56.10;;;;;;5079430;28;19911;-69
2022/01/18 06:36:57;;;;;;;;;;;10.10;56.20;;;;;;5079418;28;19904;-69
2022/01/18 06:39:22;;;;;;;;;;;10.10;56.10;;;;;;5079379;28;19993;-69
2022/01/18 06:41:48;;;;;;;;;;;10.10;56.10;;;;;;5079394;28;19912;-70
2022/01/18 06:44:14;;;;;;;;;;;10.10;56.10;;;;;;5079317;28;19904;-69
2022/01/18 06:46:39;;;;;;;;;;;10.10;56.10;;;;;;5079286;28;20306;-69
2022/01/18 06:49:05;;;;;;;;;;;10.10;56.10;;;;;;5079298;28;20010;-69
2022/01/18 06:51:31;;;;;;;;;;;10.10;56.10;;;;;;5079275;28;19911;-69
2022/01/18 06:53:57;;;;;;;;;;;10.10;56.10;;;;;;5079250;28;19920;-70
2022/01/18 06:56:23;;;;;;;;;;;10.10;56.10;;;;;;5079260;28;19912;-69
2022/01/18 06:58:48;;;;;;;;;;;10.10;56.10;;;;;;5079232;28;19913;-70
2022/01/18 07:01:14;;;;;;;;;;;10.20;56.00;;;;;;5079190;28;19911;-70
2022/01/18 07:03:40;;;;;;;;;;;10.20;55.90;;;;;;5079179;28;19971;-70
2022/01/18 07:06:06;;;;;;;;;;;10.20;55.90;;;;;;5079081;28;19947;-70
2022/01/18 07:08:32;;;;;;;;;;;10.10;56.00;;;;;;5080029;28;19923;-69
2022/01/18 07:10:58;;;;;;;;;;;10.20;56.00;;;;;;5082619;28;19993;-70
2022/01/18 07:13:23;;;;;;;;;;;10.10;56.00;;;;;;5082644;28;19935;-70
2022/01/18 07:15:49;;;;;;;;;;;10.20;56.00;;;;;;5082570;28;19905;-69
2022/01/18 07:18:15;;;;;;;;;;;10.10;56.00;;;;;;5082583;28;19912;-70
2022/01/18 07:20:41;;;;;;;;;;;10.10;56.00;;;;;;5082527;28;19972;-70
2022/01/18 07:23:08;;;;;;;;;;;10.10;55.90;;;;;;5082455;28;19909;-70
2022/01/18 07:25:33;;;;;;;;;;;10.20;56.00;;;;;;5082344;28;20425;-69
2022/01/18 07:27:59;;;;;;;;;;;10.20;56.00;;;;;;5082332;28;19904;-69
2022/01/18 07:30:25;;;;;;;;;;;10.20;56.00;;;;;;5082376;28;20297;-70
2022/01/18 07:32:51;;;;;;;;;;;10.20;55.90;;;;;;5080963;28;19904;-70
2022/01/18 07:35:16;;;;;;;;;;;10.20;56.00;;;;;;5082280;28;19904;-70
2022/01/18 07:37:43;;;;;;;;;;;10.20;56.00;;;;;;5082237;28;19920;-70
2022/01/18 07:40:09;;;;;;;;;;;10.20;56.00;;;;;;5082179;28;19924;-70
2022/01/18 07:42:35;;;;;;;;;;;10.10;55.90;;;;;;5082204;28;19923;-70
2022/01/18 07:45:00;;;;;;;;;;;10.20;55.90;;;;;;5080887;28;19905;-69
2022/01/18 07:47:26;;;;;;;;;;;10.20;55.90;;;;;;5081932;28;19915;-70
2022/01/18 07:49:51;;;;;;;;;;;10.20;56.00;;;;;;5081961;28;19905;-70
2022/01/18 07:52:18;;;;;;;;;;;10.20;55.90;;;;;;5081956;28;19917;-69
2022/01/18 07:54:44;;;;;;;;;;;10.20;55.90;;;;;;5081893;28;19920;-70
2022/01/18 07:57:11;;;;;;;;;;;10.20;55.80;;;;;;5081847;28;19904;-69
2022/01/18 07:59:37;;;;;;;;;;;10.20;55.90;;;;;;5081882;28;20003;-71
2022/01/18 08:02:02;;;;;;;;;;;10.20;55.80;;;;;;5081830;28;19919;-70
2022/01/18 08:04:28;;;;;;;;;;;10.30;55.80;;;;;;5081780;28;19974;-70
2022/01/18 08:06:54;;;;;;;;;;;10.30;55.50;;;;;;5081617;28;19914;-69
2022/01/18 08:09:22;;;;;;;;;;;10.40;55.40;;;;;;5080871;28;20205;-70
2022/01/18 08:11:47;;;;;;;;;;;10.50;55.30;;;;;;5081633;28;19944;-70
2022/01/18 08:14:13;;;;;;;;;;;10.50;55.30;;;;;;5080332;28;20219;-70
2022/01/18 08:17:00;;;;;;;;;;;10.50;55.20;;;;;;5081601;28;19946;-70
2022/01/18 08:19:29;;;;;;;;;;;10.40;55.20;;;;;;5081447;28;19913;-72
2022/01/18 08:21:54;;;;;;;;;;;10.40;55.30;;;;;;5081488;28;19946;-70
2022/01/18 08:24:20;;;;;;;;;;;10.50;55.30;;;;;;5081492;28;19948;-70
2022/01/18 08:26:46;;;;;;;;;;;10.50;55.20;;;;;;5081239;28;19923;-69
2022/01/18 08:29:14;;;;;;;;;;;10.50;55.10;;;;;;5081342;28;20105;-70
2022/01/18 08:31:40;;;;;;;;;;;10.50;55.00;;;;;;5079922;28;20205;-70
2022/01/18 08:34:06;;;;;;;;;;;10.50;55.00;;;;;;5081146;28;19911;-70
2022/01/18 08:36:31;;;;;;;;;;;10.60;55.10;;;;;;5081172;28;20193;-70
2022/01/18 08:38:57;;;;;;;;;;;10.60;55.00;;;;;;5081047;28;19939;-69
2022/01/18 08:41:22;;;;;;;;;;;10.70;54.80;;;;;;5081076;28;20167;-70
2022/01/18 08:43:49;;;;;;;;;;;10.80;54.70;;;;;;5080985;28;19939;-70
2022/01/18 08:46:15;;;;;;;;;;;10.80;54.50;;;;;;5080865;28;20207;-70
2022/01/18 08:48:41;;;;;;;;;;;10.80;54.50;;;;;;5080956;28;19912;-70
2022/01/18 08:51:07;;;;;;;;;;;10.80;54.50;;;;;;5080849;28;20430;-69
2022/01/18 08:53:33;;;;;;;;;;;10.90;54.30;;;;;;5081129;28;19944;-70
2022/01/18 08:55:58;;;;;;;;;;;10.90;54.00;;;;;;5080692;28;19950;-70
2022/01/18 08:58:26;;;;;;;;;;;11.00;54.00;;;;;;5080692;28;19979;-70
2022/01/18 09:00:51;;;;;;;;;;;11.00;53.90;;;;;;5080683;28;19908;-70
2022/01/18 09:03:17;;;;;;;;;;;11.00;53.90;;;;;;5080615;28;19919;-70
2022/01/18 09:05:45;;;;;;;;;;;10.90;54.00;;;;;;5080535;28;19916;-71
2022/01/18 09:08:12;;;;;;;;;;;10.90;54.20;;;;;;5080468;28;19928;-70
2022/01/18 09:10:38;;;;;;;;;;;10.90;54.30;;;;;;5079241;28;19912;-71
2022/01/18 09:13:04;;;;;;;;;;;10.90;54.30;;;;;;5080575;28;19943;-70
2022/01/18 09:15:30;;;;;;;;;;;10.90;54.30;;;;;;5080393;28;19912;-70
2022/01/18 09:17:56;;;;;;;;;;;11.00;54.20;;;;;;5080668;28;20022;-70
2022/01/18 09:20:24;;;;;;;;;;;11.00;54.10;;;;;;5080358;28;20074;-70
2022/01/18 09:22:50;;;;;;;;;;;10.90;54.20;;;;;;5080266;28;20380;-70
2022/01/18 09:25:17;;;;;;;;;;;10.90;54.20;;;;;;5080337;28;19904;-70
2022/01/18 09:27:43;;;;;;;;;;;10.90;55.00;;;;;;5080228;28;19944;-70
2022/01/18 09:30:09;;;;;;;;;;;10.90;54.40;;;;;;5080161;28;19912;-70
2022/01/18 09:32:34;;;;;;;;;;;10.90;54.40;;;;;;5079709;28;20003;-71
2022/01/18 09:35:00;;;;;;;;;;;11.00;54.40;;;;;;5080221;28;19912;-70
2022/01/18 09:37:26;;;;;;;;;;;11.00;54.30;;;;;;5080080;28;19905;-70
2022/01/18 09:39:54;;;;;;;;;;;11.10;54.20;;;;;;5080169;28;19912;-70
2022/01/18 09:42:20;;;;;;;;;;;11.10;54.10;;;;;;5080060;28;19908;-69
2022/01/18 09:44:47;;;;;;;;;;;11.10;54.10;;;;;;5080035;28;20153;-69
2022/01/18 09:47:12;;;;;;;;;;;11.10;54.10;;;;;;5079958;28;19943;-69
2022/01/18 09:49:38;;;;;;;;;;;11.00;54.20;;;;;;5079966;28;20196;-70
2022/01/18 09:52:04;;;;;;;;;;;11.10;54.30;;;;;;5079945;28;19905;-70
2022/01/18 09:54:30;;;;;;;;;;;11.10;54.30;;;;;;5078684;28;19944;-70
2022/01/18 09:56:55;;;;;;;;;;;11.10;54.20;;;;;;5079904;28;20108;-70
2022/01/18 09:59:21;;;;;;;;;;;11.10;54.30;;;;;;5079844;28;19946;-70
2022/01/18 10:01:47;;;;;;;;;;;11.10;54.30;;;;;;5079827;28;20304;-70
2022/01/18 10:04:13;;;;;;;;;;;11.10;54.30;;;;;;5079859;28;19945;-69
2022/01/18 10:06:39;;;;;;;;;;;11.00;54.30;;;;;;5079776;28;19909;-70
2022/01/18 10:09:09;;;;;;;;;;;11.10;54.40;;;;;;5079627;28;19947;-69
2022/01/18 10:11:35;;;;;;;;;;;11.10;54.40;;;;;;5079760;28;19920;-70
2022/01/18 10:14:00;;;;;;;;;;;11.10;54.40;;;;;;5079793;28;20101;-70
2022/01/18 10:16:26;;;;;;;;;;;11.10;54.40;;;;;;5079667;28;19909;-70
2022/01/18 10:18:55;;;;;;;;;;;11.10;54.40;;;;;;5079728;28;19919;-69
2022/01/18 10:21:24;;;;;;;;;;;11.10;54.40;;;;;;5079700;28;19911;-70
2022/01/18 10:23:50;;;;;;;;;;;11.10;54.30;;;;;;5079627;28;19916;-70
2022/01/18 10:26:20;;;;;;;;;;;11.10;54.40;;;;;;5079500;28;19983;-70
2022/01/18 10:28:46;;;;;;;;;;;11.20;54.40;;;;;;5079583;28;19909;-69
2022/01/18 10:31:26;;;;;;;;;;;11.20;54.50;;;;;;5079632;28;19909;-70
2022/01/18 10:34:11;;;;;;;;;;;11.20;54.50;;;;;;5079623;28;19911;-71
2022/01/18 10:36:50;;;;;;;;;;;11.10;54.40;;;;;;5078254;28;20138;-71
2022/01/18 10:39:19;;;;;;;;;;;11.10;54.50;;;;;;5079480;28;19912;-70
2022/01/18 10:41:45;;;;;;;;;;;11.20;54.50;;;;;;5079457;28;19912;-70
2022/01/18 10:44:13;;;;;;;;;;;11.20;54.50;;;;;;5081606;28;20224;-70
2022/01/18 10:46:40;;;;;;;;;;;11.20;54.50;;;;;;5081981;28;20236;-70
2022/01/18 10:49:06;;;;;;;;;;;11.20;54.40;;;;;;5083148;28;20299;-72
2022/01/18 10:51:33;;;;;;;;;;;11.20;54.50;;;;;;5083139;28;19980;-70
2022/01/18 10:54:01;;;;;;;;;;;11.20;54.40;;;;;;5083024;28;19905;-70
2022/01/18 10:56:36;;;;;;;;;;;11.20;54.40;;;;;;5083009;28;20101;-70
2022/01/18 10:59:01;;;;;;;;;;;11.20;54.40;;;;;;5083117;28;19905;-70
2022/01/18 11:01:28;;;;;;;;;;;11.30;54.40;;;;;;5083005;28;19944;-70
2022/01/18 11:04:13;;;;;;;;;;;11.30;54.40;;;;;;5082901;28;19912;-70
2022/01/18 11:06:39;;;;;;;;;;;11.30;54.40;;;;;;5082729;28;19916;-70
2022/01/18 11:09:10;;;;;;;;;;;11.30;54.40;;;;;;5082594;28;19985;-70
2022/01/18 11:11:46;;;;;;;;;;;11.30;54.60;;;;;;5082844;28;19947;-71
2022/01/18 11:14:13;;;;;;;;;;;11.30;54.60;;;;;;5083024;28;19947;-70
2022/01/18 11:16:42;;;;;;;;;;;11.30;54.70;;;;;;5082663;28;19912;-69
2022/01/18 11:19:16;;;;;;;;;;;11.20;54.80;;;;;;5082579;28;19950;-70
2022/01/18 11:21:43;;;;;;;;;;;11.30;54.60;;;;;;5081363;28;19912;-70
2022/01/18 11:24:08;;;;;;;;;;;11.30;54.60;;;;;;5082443;28;19954;-70
2022/01/18 11:26:38;;;;;;;;;;;11.30;54.50;;;;;;5082423;28;19920;-69
2022/01/18 11:29:05;;;;;;;;;;;11.40;54.50;;;;;;5081251;28;19919;-70
2022/01/18 11:31:30;;;;;;;;;;;11.40;54.40;;;;;;5081241;28;19940;-70
2022/01/18 11:33:58;;;;;;;;;;;11.40;54.50;;;;;;5082345;28;19911;-70
2022/01/18 11:36:26;;;;;;;;;;;11.40;54.50;;;;;;5082326;28;19975;-71
2022/01/18 11:38:53;;;;;;;;;;;11.40;54.30;;;;;;5082224;28;19978;-70
2022/01/18 11:41:23;;;;;;;;;;;11.40;54.40;;;;;;5082288;28;19905;-70
2022/01/18 11:43:51;;;;;;;;;;;11.50;54.40;;;;;;5082213;28;20368;-70
2022/01/18 11:46:30;;;;;;;;;;;11.40;54.50;;;;;;5080839;28;20108;-71
2022/01/18 11:49:03;;;;;;;;;;;11.40;54.50;;;;;;5082095;28;19908;-71
2022/01/18 11:51:44;;;;;;;;;;;11.40;54.60;;;;;;5082018;28;19905;-69
2022/01/18 11:54:20;;;;;;;;;;;11.40;54.70;;;;;;5081656;28;20266;-70
2022/01/18 11:56:46;;;;;;;;;;;11.40;54.70;;;;;;5081910;28;19919;-70
2022/01/18 11:59:19;;;;;;;;;;;11.40;54.80;;;;;;5081962;28;19971;-70
2022/01/18 12:02:11;;;;;;;;;;;11.40;54.70;;;;;;5081803;28;19919;-69
2022/01/18 12:04:41;;;;;;;;;;;11.40;54.80;;;;;;5082454;28;19912;-70
2022/01/18 12:07:07;;;;;;;;;;;11.40;54.60;;;;;;5080339;28;19922;-70
2022/01/18 12:09:43;;;;;;;;;;;11.40;54.60;;;;;;5081513;28;20244;-71
2022/01/18 12:12:29;;;;;;;;;;;11.40;54.60;;;;;;5081535;28;20117;-70
2022/01/18 12:14:54;;;;;;;;;;;11.40;54.60;;;;;;5081542;28;20438;-70
2022/01/18 12:17:20;;;;;;;;;;;11.50;54.60;;;;;;5081366;28;19912;-69
2022/01/18 12:19:47;;;;;;;;;;;11.40;54.60;;;;;;5081414;28;19916;-69
2022/01/18 12:22:13;;;;;;;;;;;11.40;54.60;;;;;;5080056;28;19916;-70
2022/01/18 12:24:44;;;;;;;;;;;11.40;54.80;;;;;;5081348;28;19927;-69
2022/01/18 12:27:42;;;;;;;;;;;11.40;54.80;;;;;;5081209;28;20148;-70
2022/01/18 12:30:26;;;;;;;;;;;11.40;54.80;;;;;;5084776;28;19912;-70
2022/01/18 12:33:12;;;;;;;;;;;11.30;55.10;;;;;;5081599;28;20407;-69
2022/01/18 12:35:38;;;;;;;;;;;11.30;54.90;;;;;;5083850;28;19905;-69
2022/01/18 12:38:10;;;;;;;;;;;11.30;54.90;;;;;;5081146;28;19987;-69
2022/01/18 12:40:42;;;;;;;;;;;11.40;54.90;;;;;;5081069;28;20289;-70
2022/01/18 12:45:36;;;;;;;;;;;11.40;54.80;;;;;;5080866;28;19975;-69
2022/01/18 12:48:10;;;;;;;;;;;11.40;54.70;;;;;;5079641;28;20110;-70
2022/01/18 12:50:36;;;;;;;;;;;11.50;54.80;;;;;;5080816;28;20423;-70
2022/01/18 12:53:05;;;;;;;;;;;11.50;54.70;;;;;;5081030;28;19920;-70
2022/01/18 12:55:32;;;;;;;;;;;11.40;54.50;;;;;;5080697;28;19912;-70
2022/01/18 12:58:04;;;;;;;;;;;11.50;54.70;;;;;;5079374;28;19913;-70
2022/01/18 13:00:34;;;;;;;;;;;11.40;54.80;;;;;;5080534;28;19912;-70
2022/01/18 13:03:01;;;;;;;;;;;11.40;54.70;;;;;;5080826;28;19919;-70
2022/01/18 13:05:37;;;;;;;;;;;11.40;55.50;;;;;;5080207;28;19911;-70
2022/01/18 13:08:03;;;;;;;;;;;11.40;54.80;;;;;;5080122;28;19924;-69
2022/01/18 13:10:37;;;;;;;;;;;11.40;54.80;;;;;;5080453;28;19916;-70
2022/01/18 13:13:03;;;;;;;;;;;11.40;54.90;;;;;;5080384;28;19981;-70
2022/01/18 13:15:47;;;;;;;;;;;11.40;54.80;;;;;;5080309;28;20129;-69
2022/01/18 13:26:34;;;;;;;;;;;11.50;54.70;;;;;;5080410;28;19917;-70
2022/01/18 13:29:13;;;;;;;;;;;11.50;54.70;;;;;;5078968;28;19904;-70
2022/01/18 13:31:41;;;;;;;;;;;11.50;54.60;;;;;;5080153;28;19991;-70
2022/01/18 13:34:11;;;;;;;;;;;11.50;54.60;;;;;;5080077;28;19912;-69
2022/01/18 13:36:50;;;;;;;;;;;11.50;54.70;;;;;;5080058;28;20219;-70
2022/01/18 13:39:28;;;;;;;;;;;11.50;54.70;;;;;;5079953;28;20338;-69
2022/01/18 13:41:55;;;;;;;;;;;11.50;54.70;;;;;;5079984;28;19912;-69
2022/01/18 13:44:21;;;;;;;;;;;11.50;54.80;;;;;;5080018;28;19912;-69
2022/01/18 13:46:46;;;;;;;;;;;11.50;54.70;;;;;;5079863;28;19928;-69
2022/01/18 13:49:13;;;;;;;;;;;11.50;55.00;;;;;;5080012;28;19927;-70
2022/01/18 13:51:39;;;;;;;;;;;11.50;54.70;;;;;;5079946;28;19979;-70
2022/01/18 13:54:08;;;;;;;;;;;11.50;54.70;;;;;;5079945;28;19960;-70
2022/01/18 13:56:34;;;;;;;;;;;11.50;54.60;;;;;;5078680;28;19913;-69
2022/01/18 13:59:02;;;;;;;;;;;11.60;54.60;;;;;;5079842;28;19912;-69
2022/01/18 14:01:32;;;;;;;;;;;11.60;54.50;;;;;;5079781;28;19913;-70
2022/01/18 14:03:59;;;;;;;;;;;11.60;54.60;;;;;;5079723;28;19952;-70
2022/01/18 14:06:38;;;;;;;;;;;11.60;54.50;;;;;;5079677;28;19920;-70
2022/01/18 14:09:04;;;;;;;;;;;11.60;54.60;;;;;;5079618;28;19924;-69
2022/01/18 14:11:32;;;;;;;;;;;11.60;54.60;;;;;;5079759;28;20423;-70
2022/01/18 14:13:58;;;;;;;;;;;11.60;54.70;;;;;;5078358;28;20105;-70
2022/01/18 14:16:28;;;;;;;;;;;11.60;54.70;;;;;;5078403;28;19962;-70
2022/01/18 14:19:13;;;;;;;;;;;11.60;54.80;;;;;;5083287;28;19935;-69
2022/01/18 14:21:43;;;;;;;;;;;11.60;54.70;;;;;;5085775;28;19905;-70
2022/01/18 14:24:17;;;;;;;;;;;11.60;54.80;;;;;;5083723;28;19919;-69
2022/01/18 14:26:52;;;;;;;;;;;11.60;54.70;;;;;;5083659;28;19917;-69
2022/01/18 14:29:22;;;;;;;;;;;11.70;54.70;;;;;;5083637;28;19912;-70
2022/01/18 14:32:06;;;;;;;;;;;11.70;54.40;;;;;;5083587;28;19935;-71
2022/01/18 14:34:34;;;;;;;;;;;11.70;54.50;;;;;;5082282;28;19912;-69
2022/01/18 14:37:00;;;;;;;;;;;11.70;54.40;;;;;;5083452;28;19979;-71
2022/01/18 14:39:26;;;;;;;;;;;11.70;54.30;;;;;;5083425;28;20220;-70
2022/01/18 14:41:57;;;;;;;;;;;11.70;54.60;;;;;;5083414;28;19911;-70
2022/01/18 14:44:36;;;;;;;;;;;11.70;54.50;;;;;;5083378;28;20204;-70
2022/01/18 14:49:46;;;;;;;;;;;11.60;54.90;;;;;;5083209;28;19912;-69
2022/01/18 14:52:12;;;;;;;;;;;11.60;54.90;;;;;;5083113;28;19913;-69
2022/01/18 14:54:38;;;;;;;;;;;11.60;55.10;;;;;;5083124;28;19995;-70
2022/01/18 14:57:03;;;;;;;;;;;11.50;55.10;;;;;;5083012;28;20217;-69
2022/01/18 14:59:29;;;;;;;;;;;11.50;55.10;;;;;;5083006;28;19904;-69
2022/01/18 15:01:56;;;;;;;;;;;11.50;55.10;;;;;;5081781;28;20004;-69
2022/01/18 15:04:25;;;;;;;;;;;11.50;55.00;;;;;;5082960;28;19940;-70
2022/01/18 15:06:51;;;;;;;;;;;11.60;55.10;;;;;;5082863;28;19958;-70
2022/01/18 15:09:16;;;;;;;;;;;11.60;54.90;;;;;;5082737;28;19924;-69
2022/01/18 15:11:42;;;;;;;;;;;11.60;55.00;;;;;;5082837;28;19950;-70
2022/01/18 15:14:07;;;;;;;;;;;11.50;55.00;;;;;;5082772;28;19984;-70
2022/01/18 15:16:33;;;;;;;;;;;11.50;55.20;;;;;;5081504;28;19917;-69
2022/01/18 15:18:59;;;;;;;;;;;11.50;55.20;;;;;;5082681;28;19951;-70
2022/01/18 15:21:25;;;;;;;;;;;11.50;55.30;;;;;;5082612;28;19912;-70
2022/01/18 15:23:50;;;;;;;;;;;11.50;55.40;;;;;;5082628;28;19920;-70
2022/01/18 15:26:17;;;;;;;;;;;11.50;55.40;;;;;;5082500;28;19935;-69
2022/01/18 15:28:43;;;;;;;;;;;11.50;55.20;;;;;;5081915;28;19983;-69
2022/01/18 15:31:09;;;;;;;;;;;11.50;55.30;;;;;;5082286;28;19913;-69
2022/01/18 15:33:35;;;;;;;;;;;11.50;55.30;;;;;;5082376;28;19913;-70
2022/01/18 15:36:00;;;;;;;;;;;11.50;55.30;;;;;;5082312;28;20247;-70
2022/01/18 15:38:26;;;;;;;;;;;11.50;55.30;;;;;;5082315;28;19905;-71
2022/01/18 15:40:51;;;;;;;;;;;11.40;55.20;;;;;;5082255;28;20003;-70
2022/01/18 15:43:17;;;;;;;;;;;11.40;55.20;;;;;;5080989;28;19912;-70